createdAt,value
2022-11-02T00:00:44.254Z,84.62
2022-11-02T00:03:52.803Z,84.44
2022-11-02T00:06:59.410Z,84.24
2022-11-02T00:10:07.712Z,83.77
2022-11-02T00:13:14.289Z,83.95
2022-11-02T00:16:21.681Z,84.27
2022-11-02T00:19:31.953Z,84.03
2022-11-02T00:22:38.073Z,84.38
2022-11-02T00:25:49.668Z,84.46
2022-11-02T00:28:55.948Z,84.28
2022-11-02T00:32:03.360Z,84.71
2022-11-02T00:35:16.635Z,84.73
2022-11-02T00:38:23.775Z,85.17
2022-11-02T00:41:31.063Z,85.08
2022-11-02T00:44:37.976Z,85.20
2022-11-02T00:47:43.681Z,85.33
2022-11-02T00:50:53.095Z,85.21
2022-11-02T00:54:03.589Z,85.43
2022-11-02T00:57:10.472Z,85.26
2022-11-02T01:00:17.762Z,85.00
2022-11-02T01:03:24.330Z,84.80
2022-11-02T01:06:32.885Z,84.55
2022-11-02T01:09:39.424Z,84.48
2022-11-02T01:12:45.337Z,84.91
2022-11-02T01:15:51.957Z,84.72
2022-11-02T01:18:59.171Z,84.72
2022-11-02T01:22:10.148Z,84.81
2022-11-02T01:25:16.087Z,84.64
2022-11-02T01:28:23.611Z,85.09
2022-11-02T01:31:30.070Z,85.49
2022-11-02T01:34:36.621Z,85.69
2022-11-02T01:37:45.576Z,85.79
2022-11-02T01:40:52.223Z,85.91
2022-11-02T01:44:01.135Z,86.04
2022-11-02T01:47:15.453Z,86.29
2022-11-02T01:50:24.854Z,86.29
2022-11-02T01:53:36.999Z,86.05
2022-11-02T01:56:44.088Z,85.93
2022-11-02T01:59:58.733Z,86.09
2022-11-02T02:03:10.223Z,86.11
2022-11-02T02:06:18.529Z,86.19
2022-11-02T02:09:28.626Z,86.73
2022-11-02T02:12:37.597Z,86.76
2022-11-02T02:15:51.683Z,87.11
2022-11-02T02:19:03.269Z,87.25
2022-11-02T02:22:51.962Z,86.93
2022-11-02T02:26:34.338Z,87.68
2022-11-02T02:29:54.680Z,87.78
2022-11-02T02:33:07.972Z,88.00
2022-11-02T02:36:24.560Z,88.14
2022-11-02T02:39:40.440Z,88.20
2022-11-02T02:42:55.186Z,87.75
2022-11-02T02:46:10.139Z,87.62
2022-11-02T02:49:22.865Z,87.66
2022-11-02T02:52:31.975Z,87.71
2022-11-02T02:55:44.673Z,87.35
2022-11-02T02:58:55.813Z,87.61
2022-11-02T03:02:08.886Z,87.78
2022-11-02T03:05:28.224Z,88.00
2022-11-02T03:08:35.994Z,87.98
2022-11-02T03:11:52.149Z,88.36
2022-11-02T03:15:11.248Z,88.39
2022-11-02T03:18:30.837Z,87.72
2022-11-02T03:21:44.006Z,87.40
2022-11-02T03:24:56.667Z,87.50
2022-11-02T03:28:14.172Z,87.79
2022-11-02T03:31:24.802Z,88.05
2022-11-02T03:34:40.822Z,87.83
2022-11-02T03:37:52.448Z,88.34
2022-11-02T03:41:03.603Z,88.25
2022-11-02T03:44:12.275Z,88.45
2022-11-02T03:47:20.953Z,88.64
2022-11-02T03:50:30.567Z,88.60
2022-11-02T03:53:45.162Z,88.82
2022-11-02T03:56:54.933Z,88.67
2022-11-02T04:00:10.352Z,89.32
2022-11-02T04:03:21.385Z,89.08
2022-11-02T04:06:31.247Z,89.33
2022-11-02T04:09:37.570Z,88.78
2022-11-02T04:12:59.983Z,88.57
2022-11-02T04:16:08.001Z,88.62
2022-11-02T04:19:30.118Z,88.68
2022-11-02T04:23:03.551Z,88.97
2022-11-02T04:26:10.422Z,89.03
2022-11-02T04:29:22.709Z,88.70
2022-11-02T04:32:45.483Z,88.73
2022-11-02T04:35:54.629Z,89.16
2022-11-02T04:39:06.638Z,88.91
2022-11-02T04:42:12.776Z,89.30
2022-11-02T04:45:22.849Z,89.19
2022-11-02T04:48:28.727Z,88.42
2022-11-02T04:51:36.779Z,88.56
2022-11-02T04:54:45.674Z,88.71
2022-11-02T04:57:52.347Z,88.70
2022-11-02T05:00:59.948Z,89.07
2022-11-02T05:04:08.568Z,89.55
2022-11-02T05:07:16.373Z,89.29
2022-11-02T05:10:27.068Z,89.06
2022-11-02T05:13:35.267Z,89.40
2022-11-02T05:16:42.344Z,89.26
2022-11-02T05:19:49.768Z,89.24
2022-11-02T05:22:57.890Z,88.89
2022-11-02T05:26:08.622Z,89.11
2022-11-02T05:29:15.580Z,89.16
2022-11-02T05:32:21.517Z,88.91
2022-11-02T05:35:28.133Z,89.67
2022-11-02T05:38:34.266Z,89.43
2022-11-02T05:41:45.349Z,89.50
2022-11-02T05:44:52.610Z,88.96
2022-11-02T05:47:59.636Z,89.00
2022-11-02T05:51:08.254Z,89.02
2022-11-02T05:54:14.977Z,88.73
2022-11-02T05:57:24.152Z,89.11
2022-11-02T06:00:30.762Z,89.32
2022-11-02T06:03:36.969Z,89.37
2022-11-02T06:06:43.858Z,89.11
2022-11-02T06:09:49.886Z,88.88
2022-11-02T06:13:06.544Z,88.08
2022-11-02T06:16:31.267Z,88.09
2022-11-02T06:19:56.023Z,87.95
2022-11-02T06:23:04.055Z,88.15
2022-11-02T06:26:29.125Z,87.84
2022-11-02T06:29:56.465Z,87.61
2022-11-02T06:33:21.822Z,87.21
2022-11-02T06:36:27.641Z,87.33
2022-11-02T06:39:34.437Z,86.90
2022-11-02T06:43:16.979Z,87.43
2022-11-02T06:46:45.395Z,87.76
2022-11-02T06:50:10.552Z,88.10
2022-11-02T06:53:17.455Z,88.48
2022-11-02T06:56:23.504Z,88.75
2022-11-02T06:59:52.855Z,89.34
2022-11-02T07:03:21.327Z,88.23
2022-11-02T07:06:27.984Z,87.74
2022-11-02T07:09:52.716Z,87.63
2022-11-02T07:13:17.500Z,87.53
2022-11-02T07:16:25.411Z,87.92
2022-11-02T07:19:34.056Z,88.23
2022-11-02T07:22:41.020Z,88.92
2022-11-02T07:25:47.159Z,89.28
2022-11-02T07:28:58.272Z,88.35
2022-11-02T07:32:07.903Z,87.38
2022-11-02T07:35:19.386Z,87.84
2022-11-02T07:38:25.190Z,87.86
2022-11-02T07:41:31.818Z,87.78
2022-11-02T07:44:37.652Z,86.86
2022-11-02T07:47:47.784Z,86.87
2022-11-02T07:50:56.330Z,86.88
2022-11-02T07:54:03.807Z,86.91
2022-11-02T07:57:09.814Z,86.71
2022-11-02T08:00:16.998Z,86.90
2022-11-02T08:03:22.917Z,87.36
2022-11-02T08:06:32.399Z,87.09
2022-11-02T08:09:38.899Z,87.12
2022-11-02T08:12:45.428Z,87.46
2022-11-02T08:15:53.784Z,87.41
2022-11-02T08:19:00.967Z,87.39
2022-11-02T08:22:10.714Z,87.11
2022-11-02T08:25:17.271Z,87.03
2022-11-02T08:28:25.663Z,86.89
2022-11-02T08:31:32.716Z,86.90
2022-11-02T08:34:38.465Z,86.82
2022-11-02T08:37:47.849Z,86.54
2022-11-02T08:40:53.802Z,86.35
2022-11-02T08:44:00.545Z,85.56
2022-11-02T08:47:09.547Z,85.67
2022-11-02T08:50:16.367Z,85.32
2022-11-02T08:53:25.003Z,84.97
2022-11-02T08:56:31.605Z,84.73
2022-11-02T08:59:37.331Z,84.77
2022-11-02T09:02:46.175Z,84.79
2022-11-02T09:05:52.031Z,84.40
2022-11-02T09:09:03.405Z,84.29
2022-11-02T09:12:10.339Z,84.13
2022-11-02T09:15:17.227Z,83.37
2022-11-02T09:18:23.325Z,82.86
2022-11-02T09:21:29.907Z,82.74
2022-11-02T09:24:38.622Z,82.61
2022-11-02T09:27:47.811Z,82.37
2022-11-02T09:30:56.150Z,81.56
2022-11-02T09:34:04.493Z,81.52
2022-11-02T09:37:10.359Z,80.63
2022-11-02T09:40:23.942Z,80.02
2022-11-02T09:43:40.274Z,79.93
2022-11-02T09:47:17.686Z,79.50
2022-11-02T09:50:21.286Z,79.63
2022-11-02T09:53:39.990Z,79.05
2022-11-02T09:56:50.120Z,78.27
2022-11-02T09:59:56.692Z,78.68
2022-11-02T10:03:11.270Z,77.39
2022-11-02T10:06:22.476Z,77.78
2022-11-02T10:09:36.481Z,77.56
2022-11-02T10:12:53.801Z,76.78
2022-11-02T10:16:03.742Z,75.48
2022-11-02T10:19:18.751Z,74.18
2022-11-02T10:22:29.270Z,73.81
2022-11-02T10:25:37.785Z,74.44
2022-11-02T10:28:51.199Z,74.52
2022-11-02T10:31:57.721Z,74.18
2022-11-02T10:35:29.985Z,73.78
2022-11-02T10:38:50.444Z,73.55
2022-11-02T10:42:11.894Z,72.89
2022-11-02T10:45:50.652Z,72.21
2022-11-02T10:49:06.520Z,73.19
2022-11-02T10:52:17.026Z,73.03
2022-11-02T10:55:29.005Z,72.34
2022-11-02T10:58:37.538Z,72.20
2022-11-02T11:01:50.121Z,70.81
2022-11-02T11:05:15.634Z,69.38
2022-11-02T11:08:34.855Z,69.56
2022-11-02T11:11:42.145Z,68.13
2022-11-02T11:21:50.031Z,66.54
2022-11-02T11:24:56.741Z,66.91
2022-11-02T11:28:03.764Z,66.32
2022-11-02T11:31:17.840Z,65.25
2022-11-02T11:34:30.494Z,64.71
2022-11-02T11:37:38.188Z,63.78
2022-11-02T11:40:54.024Z,64.59
2022-11-02T11:44:03.807Z,64.31
2022-11-02T11:47:09.667Z,64.61
2022-11-02T11:50:22.203Z,64.96
2022-11-02T11:53:35.739Z,64.63
2022-11-02T11:56:42.367Z,64.90
2022-11-02T11:59:52.235Z,64.71
2022-11-02T12:03:08.252Z,64.98
2022-11-02T12:06:28.512Z,64.65
2022-11-02T12:09:43.283Z,65.07
2022-11-02T12:13:04.674Z,65.69
2022-11-02T12:16:22.441Z,66.52
2022-11-02T12:19:38.066Z,66.30
2022-11-02T12:22:57.544Z,66.24
2022-11-02T12:26:16.023Z,65.79
2022-11-02T12:29:59.664Z,64.47
2022-11-02T12:33:17.072Z,65.03
2022-11-02T12:36:50.818Z,64.39
2022-11-02T12:43:43.377Z,63.34
2022-11-02T12:46:58.233Z,62.84
2022-11-02T12:50:21.228Z,62.22
2022-11-02T12:53:43.619Z,62.34
2022-11-02T12:56:55.233Z,62.70
2022-11-02T13:00:04.609Z,63.45
2022-11-02T13:03:33.429Z,63.15
2022-11-02T13:06:44.445Z,63.43
2022-11-02T13:09:56.820Z,63.15
2022-11-02T13:13:07.761Z,63.74
2022-11-02T13:16:17.130Z,63.61
2022-11-02T13:19:25.886Z,62.73
2022-11-02T13:22:38.438Z,63.63
2022-11-02T13:25:47.336Z,63.04
2022-11-02T13:28:59.937Z,63.27
2022-11-02T13:32:13.685Z,62.15
2022-11-02T13:35:23.369Z,62.73
2022-11-02T13:38:35.327Z,63.14
2022-11-02T13:42:08.648Z,62.55
2022-11-02T13:45:43.156Z,62.92
2022-11-02T13:49:03.564Z,62.68
2022-11-02T13:52:15.547Z,63.40
2022-11-02T13:55:25.690Z,63.25
2022-11-02T13:58:36.487Z,63.55
2022-11-02T14:01:47.991Z,62.91
2022-11-02T14:04:54.588Z,63.25
2022-11-02T14:08:07.111Z,62.81
2022-11-02T14:11:35.847Z,63.63
2022-11-02T14:14:42.394Z,63.86
2022-11-02T14:18:11.623Z,63.92
2022-11-02T14:21:43.503Z,64.08
2022-11-02T14:25:16.726Z,64.36
2022-11-02T14:28:46.949Z,64.57
2022-11-02T14:32:01.285Z,64.37
2022-11-02T14:35:25.409Z,64.77
2022-11-02T14:39:00.535Z,64.87
2022-11-02T14:42:23.759Z,65.38
2022-11-02T14:45:46.332Z,65.59
2022-11-02T14:48:56.345Z,65.78
2022-11-02T14:52:11.258Z,65.83
2022-11-02T14:55:27.169Z,65.87
2022-11-02T14:58:36.933Z,66.26
2022-11-02T15:01:53.214Z,66.39
2022-11-02T15:05:04.794Z,66.55
2022-11-02T15:08:28.505Z,66.51
2022-11-02T15:11:48.750Z,66.65
2022-11-02T15:14:59.275Z,66.84
2022-11-02T15:18:35.092Z,67.17
2022-11-02T15:21:41.572Z,67.77
2022-11-02T15:24:52.323Z,68.18
2022-11-02T15:28:08.393Z,68.34
2022-11-02T15:31:25.655Z,68.67
2022-11-02T15:34:38.825Z,69.04
2022-11-02T15:38:03.347Z,69.59
2022-11-02T15:41:23.747Z,69.89
2022-11-02T15:45:19.972Z,70.05
2022-11-02T15:48:49.717Z,70.28
2022-11-02T15:52:03.605Z,70.35
2022-11-02T15:55:21.080Z,70.48
2022-11-02T15:58:43.780Z,70.34
2022-11-02T16:02:07.473Z,70.42
2022-11-02T16:05:21.065Z,70.48
2022-11-02T16:08:33.670Z,70.60
2022-11-02T16:11:39.426Z,70.87
2022-11-02T16:14:57.800Z,70.90
2022-11-02T16:18:03.866Z,70.76
2022-11-02T16:21:16.074Z,70.71
2022-11-02T16:24:22.676Z,70.47
2022-11-02T16:27:29.529Z,70.28
2022-11-02T16:30:37.934Z,69.86
2022-11-02T16:33:46.178Z,69.51
2022-11-02T16:36:51.851Z,69.44
2022-11-02T16:39:58.507Z,69.39
2022-11-02T16:43:04.197Z,68.72
2022-11-02T16:46:18.038Z,68.33
2022-11-02T16:49:25.687Z,67.70
2022-11-02T16:52:35.120Z,67.05
2022-11-02T16:55:43.316Z,66.39
2022-11-02T16:58:51.738Z,65.37
2022-11-02T17:02:06.309Z,64.73
2022-11-02T17:05:20.428Z,65.06
2022-11-02T17:08:32.374Z,64.62
2022-11-02T17:11:44.697Z,64.46
2022-11-02T17:14:52.422Z,64.48
2022-11-02T17:18:28.006Z,64.33
2022-11-02T17:21:37.988Z,64.24
2022-11-02T17:24:44.736Z,63.82
2022-11-02T17:27:50.884Z,64.37
2022-11-02T17:30:57.346Z,64.21
2022-11-02T17:34:18.523Z,64.46
2022-11-02T17:37:29.713Z,64.04
2022-11-02T17:40:38.142Z,64.38
2022-11-02T17:43:47.377Z,64.53
2022-11-02T17:46:52.965Z,64.16
2022-11-02T17:50:03.332Z,64.46
2022-11-02T17:53:09.669Z,64.54
2022-11-02T17:56:16.409Z,64.50
2022-11-02T17:59:21.988Z,64.62
2022-11-02T18:02:28.580Z,64.80
2022-11-02T18:05:39.460Z,64.95
2022-11-02T18:09:03.366Z,64.92
2022-11-02T18:12:09.284Z,65.25
2022-11-02T18:15:19.511Z,65.29
2022-11-02T18:18:25.065Z,65.30
2022-11-02T18:21:34.236Z,65.21
2022-11-02T18:24:39.811Z,65.44
2022-11-02T18:27:46.906Z,65.57
2022-11-02T18:30:52.721Z,65.86
2022-11-02T18:33:59.423Z,65.78
2022-11-02T18:37:10.102Z,65.91
2022-11-02T18:40:18.049Z,66.01
2022-11-02T18:43:23.596Z,66.34
2022-11-02T18:46:31.227Z,66.35
2022-11-02T18:49:36.784Z,66.19
2022-11-02T18:52:49.272Z,66.42
2022-11-02T18:55:54.942Z,66.56
2022-11-02T18:59:03.564Z,66.64
2022-11-02T19:02:09.653Z,66.80
2022-11-02T19:05:28.274Z,67.09
2022-11-02T19:08:52.579Z,66.98
2022-11-02T19:12:06.893Z,67.20
2022-11-02T19:15:13.098Z,67.36
2022-11-02T19:18:19.513Z,67.52
2022-11-02T19:21:25.593Z,67.35
2022-11-02T19:24:34.768Z,67.42
2022-11-02T19:27:40.309Z,67.47
2022-11-02T19:30:46.701Z,67.53
2022-11-02T19:33:52.354Z,67.72
2022-11-02T19:36:58.948Z,67.89
2022-11-02T19:40:08.043Z,67.60
2022-11-02T19:43:14.693Z,67.85
2022-11-02T19:46:22.347Z,67.65
2022-11-02T19:49:29.052Z,67.77
2022-11-02T19:52:34.606Z,67.98
2022-11-02T19:55:43.843Z,67.76
2022-11-02T19:58:51.082Z,67.81
2022-11-02T20:01:57.841Z,67.89
2022-11-02T20:05:03.511Z,67.89
2022-11-02T20:08:10.440Z,67.84
2022-11-02T20:11:19.084Z,67.89
2022-11-02T20:14:25.559Z,67.90
2022-11-02T20:17:38.092Z,68.01
2022-11-02T20:20:53.359Z,68.42
2022-11-02T20:23:59.691Z,68.42
2022-11-02T20:27:10.240Z,68.71
2022-11-02T20:30:16.040Z,68.88
2022-11-02T20:33:22.461Z,69.17
2022-11-02T20:36:27.998Z,68.97
2022-11-02T20:39:34.682Z,68.97
2022-11-02T20:42:44.133Z,69.31
2022-11-02T20:45:53.682Z,69.43
2022-11-02T20:49:08.840Z,69.30
2022-11-02T20:52:27.798Z,69.35
2022-11-02T20:55:33.521Z,69.43
2022-11-02T20:58:42.766Z,69.46
2022-11-02T21:01:48.849Z,69.44
2022-11-02T21:04:55.341Z,69.43
2022-11-02T21:08:01.246Z,69.53
2022-11-02T21:11:29.701Z,69.80
2022-11-02T21:14:35.813Z,70.11
2022-11-02T21:17:42.200Z,70.19
2022-11-02T21:20:47.990Z,70.69
2022-11-02T21:23:54.996Z,70.44
2022-11-02T21:27:00.761Z,70.66
2022-11-02T21:30:12.859Z,70.81
2022-11-02T21:33:18.415Z,70.55
2022-11-02T21:36:24.855Z,70.75
2022-11-02T21:39:30.710Z,71.01
2022-11-02T21:42:37.196Z,71.13
2022-11-02T21:45:53.383Z,71.06
2022-11-02T21:49:00.178Z,71.31
2022-11-02T21:52:08.093Z,71.54
2022-11-02T21:55:14.795Z,71.60
2022-11-02T21:58:20.377Z,71.61
2022-11-02T22:01:50.454Z,71.68
2022-11-02T22:04:57.380Z,71.57
2022-11-02T22:08:19.722Z,71.49
2022-11-02T22:11:30.110Z,71.28
2022-11-02T22:14:36.531Z,71.52
2022-11-02T22:17:49.556Z,71.58
2022-11-02T22:20:58.589Z,71.65
2022-11-02T22:24:06.863Z,71.81
2022-11-02T22:27:13.348Z,71.91
2022-11-02T22:30:19.004Z,72.33
2022-11-02T22:33:28.877Z,72.28
2022-11-02T22:36:36.607Z,72.23
2022-11-02T22:39:40.283Z,72.41
2022-11-02T22:42:45.821Z,72.45
2022-11-02T22:45:52.282Z,72.68
2022-11-02T22:49:03.337Z,72.84
2022-11-02T22:52:09.795Z,73.14
2022-11-02T22:55:15.304Z,73.21
2022-11-02T22:58:21.740Z,73.05
2022-11-02T23:01:28.958Z,73.16
2022-11-02T23:04:38.455Z,73.27
2022-11-02T23:07:44.003Z,73.43
2022-11-02T23:11:06.267Z,73.32
2022-11-02T23:14:13.664Z,73.31
2022-11-02T23:17:20.268Z,73.68
2022-11-02T23:20:28.805Z,74.07
2022-11-02T23:23:51.010Z,73.92
2022-11-02T23:26:56.684Z,74.17
2022-11-02T23:30:18.957Z,74.11
2022-11-02T23:33:26.494Z,74.26
2022-11-02T23:36:33.434Z,74.45
2022-11-02T23:39:51.148Z,74.38
2022-11-02T23:42:58.095Z,74.71
2022-11-02T23:46:03.622Z,74.98
2022-11-02T23:49:10.477Z,74.86
2022-11-02T23:52:34.431Z,75.19
2022-11-02T23:55:56.498Z,75.23
2022-11-02T23:59:09.210Z,75.65
